Norwood Young America, MN (55368)

8:31 PM CDT on October 13, 2019 (GMT -0500)
South Side NYA | | Change Station
Active Advisory: Flood Warning

Elev 978 ft 44.77 °N, 93.92 °W | Updated 38 seconds ago

Mostly Cloudy
Mostly Cloudy
39.2 °F
Feels Like 36 °F
N
4.3
Wind Variable Wind from WSW
Gusts 7.2 mph

Today
High -- | Low -- °F
--% Chance of Precip.
Yesterday
High -- | Low -- °F
Precip. -- in
Pressure 29.91 in
Visibility 7.0 miles
Clouds Scattered Clouds 1600 ft
Mostly Cloudy 3600 ft
Overcast 6000 ft
Windchill 36 °F
Dew Point 33 °F
Humidity 78%
Rainfall 0.00 in
Snow Depth Not available.
7:28 AM 6:34 PM
Full, 100% visible
METAR KGYL 140059Z AUTO 28006G16KT 7SM DZ SCT016 BKN036 OVC060 03/01 A2991 RMK AO2
Pressure 29.91 in
Visibility 7.0 miles
Clouds Scattered Clouds 1600 ft
Mostly Cloudy 3600 ft
Overcast 6000 ft
Windchill 36 °F
Dew Point 33 °F
Humidity 78%
Rainfall 0.00 in
Snow Depth Not available.
7:28 AM 6:34 PM
Full, 100% visible
METAR KGYL 140059Z AUTO 28006G16KT 7SM DZ SCT016 BKN036 OVC060 03/01 A2991 RMK AO2

Get Your Daily Forecast Email!

Thanks for signing up!

Be on the lookout for a verification email in your inbox.

You'll start receiving severe weather alerts in your inbox..

×

10-Day Weather Forecast

Almanac

Astronomy

Oct. 13, 2019 Rise Set
Actual Time
Civil Twilight
Nautical Twilight
Astronomical Twilight
Moon
Length of Visible Light
Length of Day
Tomorrow will be .
, % of the Moon is Illuminated

Today's Extremes

State Highs State Lows

Community

WunderPhotos

Category 6

Welcome to Category 6. This is the collective home for Weather Underground's featured writeups by Dr. Jeff Masters (right), Bob Henson (left), Chris Burt, and other regular contributors.

Nearby

Air Quality

  Air Quality AQ Index Pollutant
Not available.

Snow Depth

Station Depth Elevation

Earthquake Activity

City Distance Mag. Time & Date
Minimum magnitude displayed is 2.5.

Coastal Water Temperatures

Place Temperature

Stations

Nearby Weather Stations

Station Location Temp. Windchill Dew Point Humidity Wind Precip. Elev Updated Type
                   

Watches & Warnings

Flood Warning
Issued: 7:29 PM CDT Oct. 13, 2019 – National Weather Service

The Flood Warning continues for
the South Fork Crow River below Mayer.
* Until Tuesday morning.
* At 6:30 PM Sunday the stage was 11.6 feet.
* Minor flooding is occurring and minor flooding is forecast.
* Flood stage is 11.0 feet.
* Forecast... the river will continue to fall to below flood stage by
early Tuesday morning.
* Impact... at 12.0 feet... flooding affects mill Avenue from Watertown
to the Wright County line; Yancy Avenue between Carver County Road
30 and 78th street; Vega Avenue between Carver County Road 33 and
94th street; and the intersection of Union Avenue and 82nd street.
* Impact... at 11.0 feet... Carver County Road 123 is closed north of
Highway 7 to 42nd street.


Lat... Lon 4498 9390 4498 9377 4483 9390 4486 9399